createdAt,value
2023-04-18T00:02:36.501Z,101109.05
2023-04-18T00:05:40.843Z,101105.50
2023-04-18T00:08:44.870Z,101109.48
2023-04-18T00:11:48.886Z,101107.16
2023-04-18T00:14:53.094Z,101107.11
2023-04-18T00:17:57.456Z,101104.09
2023-04-18T00:21:02.063Z,101104.61
2023-04-18T00:24:06.984Z,101108.02
2023-04-18T00:27:10.999Z,101104.38
2023-04-18T00:30:15.514Z,101103.06
2023-04-18T00:33:19.339Z,101102.73
2023-04-18T00:36:23.355Z,101100.33
2023-04-18T00:39:27.471Z,101101.64
2023-04-18T00:42:32.103Z,101099.74
2023-04-18T00:45:37.135Z,101105.70
2023-04-18T00:48:41.450Z,101110.47
2023-04-18T00:51:46.316Z,101107.20
2023-04-18T00:54:50.628Z,101106.45
2023-04-18T00:57:54.639Z,101105.36
2023-04-18T01:00:58.655Z,101105.64
2023-04-18T01:04:03.026Z,101104.90
2023-04-18T01:07:08.528Z,101106.63
2023-04-18T01:10:12.750Z,101107.89
2023-04-18T01:13:19.640Z,101108.57
2023-04-18T01:16:23.876Z,101111.36
2023-04-18T01:19:27.972Z,101107.72
2023-04-18T01:22:33.566Z,101110.28
2023-04-18T01:25:38.966Z,101104.27
2023-04-18T01:28:42.987Z,101104.23
2023-04-18T01:31:47.352Z,101101.02
2023-04-18T01:34:52.968Z,101103.27
2023-04-18T01:37:57.672Z,101099.98
2023-04-18T01:41:02.521Z,101098.73
2023-04-18T01:44:06.502Z,101096.36
2023-04-18T01:47:10.668Z,101094.27
2023-04-18T01:50:14.690Z,101097.15
2023-04-18T01:53:20.324Z,101098.48
2023-04-18T01:56:24.314Z,101099.47
2023-04-18T01:59:28.452Z,101101.52
2023-04-18T02:02:33.355Z,101098.72
2023-04-18T02:05:37.762Z,101095.67
2023-04-18T02:08:43.595Z,101095.71
2023-04-18T02:11:47.611Z,101097.04
2023-04-18T02:14:56.129Z,101094.86
2023-04-18T02:18:00.504Z,101100.36
2023-04-18T02:21:04.873Z,101091.45
2023-04-18T02:24:08.789Z,101084.29
2023-04-18T02:27:13.029Z,101083.11
2023-04-18T02:30:17.029Z,101083.08
2023-04-18T02:33:21.147Z,101083.87
2023-04-18T02:36:28.231Z,101079.08
2023-04-18T02:39:32.474Z,101077.20
2023-04-18T02:42:36.627Z,101077.08
2023-04-18T02:45:40.650Z,101080.86
2023-04-18T02:48:44.706Z,101078.30
2023-04-18T02:51:49.640Z,101078.52
2023-04-18T02:54:54.168Z,101079.85
2023-04-18T02:58:01.968Z,101081.73
2023-04-18T03:01:24.359Z,101087.27
2023-04-18T03:04:33.574Z,101087.21
2023-04-18T03:07:40.756Z,101093.36
2023-04-18T03:10:44.761Z,101096.53
2023-04-18T03:13:49.296Z,101097.59
2023-04-18T03:16:55.203Z,101099.17
2023-04-18T03:20:02.546Z,101104.96
2023-04-18T03:23:06.702Z,101101.45
2023-04-18T03:26:13.998Z,101103.57
2023-04-18T03:29:18.457Z,101101.73
2023-04-18T03:32:22.940Z,101111.79
2023-04-18T03:35:27.027Z,101108.83
2023-04-18T03:38:31.760Z,101111.39
2023-04-18T03:41:35.778Z,101115.80
2023-04-18T03:44:40.200Z,101115.27
2023-04-18T03:47:44.515Z,101118.24
2023-04-18T03:50:48.550Z,101121.20
2023-04-18T03:53:52.768Z,101117.91
2023-04-18T03:56:57.655Z,101118.27
2023-04-18T04:00:02.044Z,101117.25
2023-04-18T04:03:19.650Z,101120.30
2023-04-18T04:06:24.498Z,101114.06
2023-04-18T04:09:28.394Z,101113.56
2023-04-18T04:12:32.498Z,101113.34
2023-04-18T04:15:38.631Z,101117.86
2023-04-18T04:18:44.190Z,101120.37
2023-04-18T04:21:49.592Z,101122.29
2023-04-18T04:24:53.975Z,101124.13
2023-04-18T04:28:03.051Z,101123.27
2023-04-18T04:31:10.363Z,101124.67
2023-04-18T04:34:16.953Z,101128.91
2023-04-18T04:37:21.114Z,101128.70
2023-04-18T04:40:41.539Z,101129.03
2023-04-18T04:43:48.851Z,101130.23
2023-04-18T04:46:56.130Z,101127.25
2023-04-18T04:50:06.214Z,101130.76
2023-04-18T04:53:11.940Z,101136.08
2023-04-18T04:56:16.237Z,101137.23
2023-04-18T04:59:20.987Z,101138.67
2023-04-18T05:02:25.234Z,101141.80
2023-04-18T05:05:30.230Z,101138.55
2023-04-18T05:08:34.579Z,101140.23
2023-04-18T05:11:38.574Z,101143.96
2023-04-18T05:14:42.621Z,101144.41
2023-04-18T05:17:46.627Z,101147.20
2023-04-18T05:20:50.727Z,101147.69
2023-04-18T05:23:54.750Z,101149.48
2023-04-18T05:26:59.075Z,101150.80
2023-04-18T05:30:03.195Z,101153.27
2023-04-18T05:33:07.388Z,101146.89
2023-04-18T05:36:11.425Z,101149.09
2023-04-18T05:39:15.452Z,101151.60
2023-04-18T05:42:19.464Z,101153.84
2023-04-18T05:45:23.482Z,101152.40
2023-04-18T05:48:27.497Z,101153.61
2023-04-18T05:51:32.118Z,101148.34
2023-04-18T05:54:36.553Z,101149.30
2023-04-18T05:57:41.706Z,101147.05
2023-04-18T06:00:45.818Z,101152.67
2023-04-18T06:03:50.081Z,101151.53
2023-04-18T06:06:54.468Z,101154.21
2023-04-18T06:09:58.476Z,101156.42
2023-04-18T06:13:02.588Z,101155.54
2023-04-18T06:16:07.314Z,101155.64
2023-04-18T06:19:11.444Z,101159.48
2023-04-18T06:22:15.636Z,101158.30
2023-04-18T06:25:20.249Z,101160.33
2023-04-18T06:28:24.517Z,101159.89
2023-04-18T06:31:28.820Z,101157.12
2023-04-18T06:34:33.363Z,101163.79
2023-04-18T06:37:37.462Z,101165.89
2023-04-18T06:40:41.647Z,101162.20
2023-04-18T06:43:59.714Z,101165.14
2023-04-18T06:47:07.255Z,101163.53
2023-04-18T06:50:11.379Z,101162.17
2023-04-18T06:53:15.995Z,101161.81
2023-04-18T06:56:20.625Z,101164.04
2023-04-18T06:59:24.623Z,101163.42
2023-04-18T07:02:28.715Z,101166.12
2023-04-18T07:05:32.875Z,101167.84
2023-04-18T07:08:37.106Z,101169.80
2023-04-18T07:11:41.316Z,101172.28
2023-04-18T07:14:45.311Z,101176.35
2023-04-18T07:17:49.370Z,101172.27
2023-04-18T07:20:53.464Z,101173.02
2023-04-18T07:23:57.479Z,101175.25
2023-04-18T07:27:03.302Z,101173.90
2023-04-18T07:30:08.441Z,101177.11
2023-04-18T07:33:12.391Z,101179.05
2023-04-18T07:36:16.390Z,101181.41
2023-04-18T07:39:20.340Z,101181.58
2023-04-18T07:42:24.307Z,101183.09
2023-04-18T07:45:28.238Z,101182.21
2023-04-18T07:48:32.373Z,101185.20
2023-04-18T07:51:36.354Z,101182.11
2023-04-18T07:54:40.642Z,101180.79
2023-04-18T07:57:45.964Z,101182.50
2023-04-18T08:00:51.098Z,101185.83
2023-04-18T08:03:56.797Z,101188.17
2023-04-18T08:07:01.500Z,101189.84
2023-04-18T08:10:06.008Z,101187.34
2023-04-18T08:13:10.237Z,101184.23
2023-04-18T08:16:16.865Z,101182.59
2023-04-18T08:19:21.424Z,101181.69
2023-04-18T08:22:25.390Z,101187.59
2023-04-18T08:25:29.800Z,101183.45
2023-04-18T08:28:33.794Z,101193.80
2023-04-18T08:31:39.170Z,101194.86
2023-04-18T08:34:43.667Z,101187.52
2023-04-18T08:37:47.786Z,101186.02
2023-04-18T08:40:51.717Z,101185.59
2023-04-18T08:43:57.081Z,101182.91
2023-04-18T08:47:01.663Z,101181.52
2023-04-18T08:50:07.702Z,101180.55
2023-04-18T08:53:12.067Z,101182.42
2023-04-18T08:56:16.769Z,101180.74
2023-04-18T08:59:20.815Z,101178.02
2023-04-18T09:02:39.093Z,101173.73
2023-04-18T09:05:43.343Z,101173.23
2023-04-18T09:08:58.943Z,101172.08
2023-04-18T09:12:07.955Z,101170.17
2023-04-18T09:15:14.276Z,101172.27
2023-04-18T09:18:18.377Z,101167.45
2023-04-18T09:21:22.519Z,101166.93
2023-04-18T09:24:28.595Z,101164.55
2023-04-18T09:27:35.135Z,101160.31
2023-04-18T09:30:42.266Z,101160.77
2023-04-18T09:33:56.953Z,101154.98
2023-04-18T09:37:09.266Z,101153.14
2023-04-18T09:40:21.553Z,101148.69
2023-04-18T09:43:25.636Z,101151.37
2023-04-18T09:46:29.794Z,101145.15
2023-04-18T09:49:33.992Z,101145.73
2023-04-18T09:52:40.553Z,101144.77
2023-04-18T09:55:45.840Z,101136.53
2023-04-18T09:58:57.055Z,101136.23
2023-04-18T10:02:03.036Z,101133.83
2023-04-18T10:05:08.221Z,101132.40
2023-04-18T10:08:14.059Z,101130.88
2023-04-18T10:11:19.306Z,101130.64
2023-04-18T10:14:27.346Z,101123.66
2023-04-18T10:18:03.714Z,101121.06
2023-04-18T10:21:09.398Z,101118.90
2023-04-18T10:24:32.190Z,101117.75
2023-04-18T10:27:48.487Z,101111.35
2023-04-18T10:31:12.236Z,101107.38
2023-04-18T10:34:19.816Z,101108.91
2023-04-18T10:37:26.967Z,101110.42
2023-04-18T10:40:35.092Z,101106.96
2023-04-18T10:44:10.423Z,101106.44
2023-04-18T10:47:19.922Z,101102.43
2023-04-18T10:50:24.099Z,101101.92
2023-04-18T10:53:28.035Z,101099.35
2023-04-18T10:56:32.008Z,101096.22
2023-04-18T10:59:42.368Z,101099.04
2023-04-18T11:02:50.911Z,101091.02
2023-04-18T11:06:02.857Z,101090.01
2023-04-18T11:09:14.470Z,101091.32
2023-04-18T11:12:18.587Z,101082.76
2023-04-18T11:15:25.412Z,101082.05
2023-04-18T11:18:42.134Z,101085.13
2023-04-18T11:21:46.234Z,101085.52
2023-04-18T11:24:50.349Z,101082.39
2023-04-18T11:27:57.341Z,101080.66
2023-04-18T11:31:02.951Z,101077.13
2023-04-18T11:34:07.112Z,101072.62
2023-04-18T11:37:11.637Z,101068.98
2023-04-18T11:40:16.372Z,101064.75
2023-04-18T11:43:25.005Z,101067.04
2023-04-18T11:46:41.908Z,101065.30
2023-04-18T11:49:46.232Z,101065.19
2023-04-18T11:52:52.001Z,101057.33
2023-04-18T11:55:56.500Z,101055.20
2023-04-18T11:59:07.867Z,101053.40
2023-04-18T12:02:16.759Z,101054.73
2023-04-18T12:05:32.764Z,101052.80
2023-04-18T12:08:37.039Z,101049.87
2023-04-18T12:11:42.439Z,101049.64
2023-04-18T12:14:46.523Z,101046.92
2023-04-18T12:17:53.595Z,101044.11
2023-04-18T12:20:58.759Z,101039.71
2023-04-18T12:24:14.200Z,101036.31
2023-04-18T12:27:18.369Z,101041.23
2023-04-18T12:30:25.759Z,101039.73
2023-04-18T12:33:30.687Z,101034.31
2023-04-18T12:36:34.805Z,101030.89
2023-04-18T12:39:38.823Z,101030.10
2023-04-18T12:42:43.039Z,101032.32
2023-04-18T12:45:47.479Z,101027.30
2023-04-18T12:48:51.577Z,101019.15
2023-04-18T12:51:55.907Z,101019.17
2023-04-18T12:55:00.227Z,101021.59
2023-04-18T12:58:04.450Z,101018.70
2023-04-18T13:01:09.326Z,101015.87
2023-04-18T13:04:13.878Z,101016.63
2023-04-18T13:08:08.517Z,101015.17
2023-04-18T13:11:18.758Z,101014.76
2023-04-18T13:14:22.825Z,101010.23
2023-04-18T13:17:27.124Z,101004.66
2023-04-18T13:20:31.345Z,101002.11
2023-04-18T13:23:35.458Z,100995.55
2023-04-18T13:26:39.482Z,100993.13
2023-04-18T13:29:43.686Z,100995.04
2023-04-18T13:32:47.740Z,100996.13
2023-04-18T13:35:54.599Z,100993.84
2023-04-18T13:38:58.819Z,100997.54
2023-04-18T13:42:03.579Z,100992.48
2023-04-18T13:45:08.296Z,100992.98
2023-04-18T13:48:14.414Z,100985.27
2023-04-18T13:51:19.688Z,100988.86
2023-04-18T13:54:26.702Z,100988.88
2023-04-18T13:57:32.366Z,100983.63
2023-04-18T14:00:36.434Z,100982.90
2023-04-18T14:03:43.061Z,100980.65
2023-04-18T14:06:48.873Z,100983.56
2023-04-18T14:09:54.074Z,100977.10
2023-04-18T14:12:59.273Z,100975.69
2023-04-18T14:19:31.001Z,100970.88
2023-04-18T14:22:35.172Z,100971.45
2023-04-18T14:25:39.193Z,100969.19
2023-04-18T14:28:43.146Z,100966.59
2023-04-18T14:31:47.152Z,100966.80
2023-04-18T14:34:51.337Z,100967.34
2023-04-18T14:37:55.359Z,100966.20
2023-04-18T14:40:59.578Z,100966.82
2023-04-18T14:44:04.244Z,100968.51
2023-04-18T14:47:08.318Z,100967.02
2023-04-18T14:50:12.566Z,100960.59
2023-04-18T14:53:16.753Z,100958.98
2023-04-18T14:56:21.612Z,100959.59
2023-04-18T14:59:28.086Z,100953.73
2023-04-18T15:02:32.281Z,100951.69
2023-04-18T15:05:42.752Z,100948.30
2023-04-18T15:08:47.282Z,100946.27
2023-04-18T15:11:52.120Z,100942.84
2023-04-18T15:14:56.141Z,100944.17
2023-04-18T15:18:00.903Z,100942.60
2023-04-18T15:21:04.992Z,100941.70
2023-04-18T15:24:09.015Z,100945.08
2023-04-18T15:27:13.133Z,100942.96
2023-04-18T15:30:17.551Z,100943.23
2023-04-18T15:33:21.899Z,100939.52
2023-04-18T15:36:25.845Z,100944.34
2023-04-18T15:39:29.804Z,100939.70
2023-04-18T15:42:34.128Z,100937.32
2023-04-18T15:45:38.148Z,100942.54
2023-04-18T15:48:42.054Z,100942.39
2023-04-18T15:51:46.132Z,100940.41
2023-04-18T15:54:52.035Z,100939.94
2023-04-18T15:57:56.362Z,100938.94
2023-04-18T16:01:00.387Z,100940.58
2023-04-18T16:04:04.652Z,100938.02
2023-04-18T16:07:09.219Z,100938.48
2023-04-18T16:10:15.210Z,100935.23
2023-04-18T16:13:19.502Z,100931.89
2023-04-18T16:16:23.625Z,100927.30
2023-04-18T16:19:27.748Z,100929.60
2023-04-18T16:22:31.776Z,100930.52
2023-04-18T16:25:35.765Z,100929.40
2023-04-18T16:28:39.790Z,100926.55
2023-04-18T16:31:43.825Z,100921.79
2023-04-18T16:34:48.474Z,100920.90
2023-04-18T16:37:52.584Z,100924.11
2023-04-18T16:41:01.550Z,100920.85
2023-04-18T16:44:05.706Z,100920.62
2023-04-18T16:47:09.969Z,100919.41
2023-04-18T16:50:14.418Z,100917.12
2023-04-18T16:53:18.323Z,100916.07
2023-04-18T16:56:22.277Z,100915.46
2023-04-18T16:59:26.310Z,100915.67
2023-04-18T17:02:30.911Z,100915.31
2023-04-18T17:05:36.360Z,100914.67
2023-04-18T17:08:40.400Z,100915.88
2023-04-18T17:11:44.410Z,100916.11
2023-04-18T17:14:48.423Z,100915.74
2023-04-18T17:17:52.531Z,100915.05
2023-04-18T17:20:56.763Z,100915.12
2023-04-18T17:24:03.826Z,100916.03
2023-04-18T17:27:07.971Z,100919.05
2023-04-18T17:30:12.490Z,100916.61
2023-04-18T17:33:16.487Z,100916.69
2023-04-18T17:36:20.826Z,100916.15
2023-04-18T17:39:24.960Z,100915.13
2023-04-18T17:42:28.969Z,100919.03
2023-04-18T17:45:32.990Z,100918.95
2023-04-18T17:48:37.099Z,100916.21
2023-04-18T17:51:41.120Z,100919.91
2023-04-18T17:54:45.089Z,100919.11
2023-04-18T17:57:49.055Z,100914.62
2023-04-18T18:00:53.420Z,100915.39
2023-04-18T18:03:57.589Z,100916.04
2023-04-18T18:07:01.783Z,100916.52
2023-04-18T18:10:07.090Z,100915.36
2023-04-18T18:13:11.084Z,100914.10
2023-04-18T18:16:15.303Z,100914.13
2023-04-18T18:19:21.168Z,100913.98
2023-04-18T18:22:26.302Z,100909.58
2023-04-18T18:25:31.244Z,100905.73
2023-04-18T18:28:35.354Z,100907.02
2023-04-18T18:31:39.650Z,100903.07
2023-04-18T18:34:43.790Z,100900.64
2023-04-18T18:37:48.055Z,100896.08
2023-04-18T18:40:52.025Z,100895.72
2023-04-18T18:43:56.386Z,100896.39
2023-04-18T18:47:00.363Z,100894.86
2023-04-18T18:50:04.790Z,100893.97
2023-04-18T18:53:08.794Z,100893.82
2023-04-18T18:56:12.826Z,100890.10
2023-04-18T18:59:17.784Z,100885.46
2023-04-18T19:02:21.831Z,100882.27
2023-04-18T19:05:26.103Z,100879.42
2023-04-18T19:08:31.050Z,100877.35
2023-04-18T19:11:35.061Z,100877.16
2023-04-18T19:14:40.706Z,100875.01
2023-04-18T19:17:46.414Z,100872.04
2023-04-18T19:20:50.800Z,100869.75
2023-04-18T19:23:54.803Z,100865.58
2023-04-18T19:26:59.730Z,100860.23
2023-04-18T19:30:04.021Z,100859.45
2023-04-18T19:33:08.053Z,100860.04
2023-04-18T19:36:12.090Z,100856.06
2023-04-18T19:39:16.906Z,100854.42
2023-04-18T19:42:20.935Z,100852.35
2023-04-18T19:45:24.931Z,100852.23
2023-04-18T19:48:28.820Z,100849.21
2023-04-18T19:51:32.891Z,100847.35
2023-04-18T19:54:37.004Z,100847.78
2023-04-18T19:57:42.150Z,100845.00
2023-04-18T20:00:46.509Z,100841.38
2023-04-18T20:03:50.615Z,100839.95
2023-04-18T20:06:56.350Z,100838.59
2023-04-18T20:10:00.545Z,100833.43
2023-04-18T20:13:04.997Z,100834.71
2023-04-18T20:16:09.382Z,100829.36
2023-04-18T20:19:14.000Z,100824.34
2023-04-18T20:22:19.183Z,100824.91
2023-04-18T20:25:23.305Z,100822.64
2023-04-18T20:28:27.538Z,100817.48
2023-04-18T20:31:31.432Z,100819.30
2023-04-18T20:34:36.071Z,100817.23
2023-04-18T20:37:41.457Z,100816.39
2023-04-18T20:40:45.446Z,100810.59
2023-04-18T20:43:50.885Z,100809.20
2023-04-18T20:46:55.101Z,100805.59
2023-04-18T20:50:00.255Z,100806.10
2023-04-18T20:53:04.305Z,100804.39
2023-04-18T20:56:08.241Z,100805.82
2023-04-18T20:59:12.167Z,100803.63
2023-04-18T21:02:16.688Z,100802.23
2023-04-18T21:05:20.725Z,100793.16
2023-04-18T21:08:24.750Z,100793.19
2023-04-18T21:11:28.765Z,100789.41
2023-04-18T21:14:32.815Z,100786.97
2023-04-18T21:17:36.924Z,100783.52
2023-04-18T21:20:40.834Z,100779.80
2023-04-18T21:23:44.799Z,100779.46
2023-04-18T21:26:48.724Z,100776.74
2023-04-18T21:29:53.359Z,100775.42
2023-04-18T21:32:57.328Z,100770.13
2023-04-18T21:36:01.408Z,100765.70
2023-04-18T21:39:05.502Z,100762.27
2023-04-18T21:42:10.879Z,100761.96
2023-04-18T21:45:14.812Z,100761.48
2023-04-18T21:48:19.204Z,100758.68
2023-04-18T21:51:23.221Z,100753.35
2023-04-18T21:54:27.118Z,100753.09
2023-04-18T21:57:31.048Z,100752.64
2023-04-18T22:00:34.956Z,100746.55
2023-04-18T22:03:39.126Z,100750.97
2023-04-18T22:06:43.308Z,100749.34
2023-04-18T22:09:47.307Z,100746.45
2023-04-18T22:12:54.153Z,100744.39
2023-04-18T22:16:02.314Z,100741.39
2023-04-18T22:19:07.009Z,100739.83
2023-04-18T22:22:11.461Z,100739.69
2023-04-18T22:25:15.688Z,100738.20
2023-04-18T22:28:20.035Z,100737.61
2023-04-18T22:31:24.121Z,100734.98
2023-04-18T22:34:28.359Z,100733.13
2023-04-18T22:37:32.371Z,100727.96
2023-04-18T22:40:36.327Z,100725.59
2023-04-18T22:43:40.284Z,100725.66
2023-04-18T22:46:45.036Z,100720.41
2023-04-18T22:49:49.342Z,100720.70
2023-04-18T22:52:53.695Z,100714.84
2023-04-18T22:55:57.664Z,100715.70
2023-04-18T22:59:01.565Z,100717.77
2023-04-18T23:02:05.899Z,100708.91
2023-04-18T23:05:10.896Z,100709.25
2023-04-18T23:08:14.987Z,100706.89
2023-04-18T23:11:19.000Z,100704.30
2023-04-18T23:14:22.946Z,100700.11
2023-04-18T23:17:27.002Z,100696.88
2023-04-18T23:20:31.152Z,100694.70
2023-04-18T23:23:35.104Z,100690.67
2023-04-18T23:26:39.707Z,100686.02
2023-04-18T23:29:46.974Z,100682.08
2023-04-18T23:32:50.985Z,100677.67
2023-04-18T23:35:55.033Z,100672.94
2023-04-18T23:38:59.036Z,100667.12
2023-04-18T23:42:03.060Z,100659.51
2023-04-18T23:45:08.088Z,100658.73
2023-04-18T23:48:12.519Z,100658.16
2023-04-18T23:51:16.511Z,100661.27
2023-04-18T23:54:20.429Z,100657.61
2023-04-18T23:57:24.459Z,100649.81
